Gaz Unity — HOEJ — position and weather

sailwx.info

Track history (hours):
 
Tides and Currents Weather Stations Pressure Air Temp Water Temp Dewpoint Dewpoint Depression Visibility Wind Speed Wind Dir Waves Ship Positions

Gaz Unity

Last reported at 2017-Apr-28 00:30 UTC. Time now 2017-Apr-28 00:31 UTC.
Position N 35°34' E 015°15'.

; draft 8.7 m.

Type: Ship (hazmat cat C). MMSI: 353956000.

Date/timePositionNaut miles runAvg speedWind from/ knotsBaromVisibWave heightAir tempDewpointWater temp
2017-Apr-28 00:30N 35°34' E 015°15'0 0.6
2017-Apr-28 00:00N 35°34' E 015°15'0 0.6
2017-Apr-27 23:30N 35°34' E 015°15'0 0.6
2017-Apr-27 23:00N 35°33' E 015°16'0 0.7
2017-Apr-27 22:30N 35°33' E 015°16'0 0.7
2017-Apr-27 22:00N 35°33' E 015°16'0 0.7
2017-Apr-27 21:30N 35°33' E 015°17'0 0.6
2017-Apr-27 20:59N 35°33' E 015°17'0 0.7
2017-Apr-27 20:29N 35°32' E 015°17'0 0.7
2017-Apr-27 20:00N 35°32' E 015°18'0 0.6
2017-Apr-27 19:30N 35°32' E 015°18'0 0.6
2017-Apr-27 19:00N 35°32' E 015°18'0 0.6
2017-Apr-27 18:30N 35°32' E 015°19'0 0.6
2017-Apr-27 18:00N 35°32' E 015°19'0 0.6
2017-Apr-27 17:30N 35°32' E 015°19'0 0.5
2017-Apr-27 17:00N 35°32' E 015°20'0 0.4
2017-Apr-27 16:30N 35°31' E 015°20'0 0.4
2017-Apr-27 16:00N 35°31' E 015°20'0 0.3
2017-Apr-27 15:30N 35°31' E 015°20'0 0.3
2017-Apr-27 15:00N 35°31' E 015°20'0 0.2
2017-Apr-27 14:00N 35°31' E 015°20'0 0.1
2017-Apr-27 13:30N 35°31' E 015°20'0 0.2
2017-Apr-27 13:00N 35°31' E 015°20'0 0.1
2017-Apr-27 11:58N 35°31' E 015°20'0 0.2
2017-Apr-27 11:28N 35°31' E 015°20'1 1.3
2017-Apr-27 10:59N 35°32' E 015°20'5 6.9
2017-Apr-27 10:18N 35°36' E 015°20'2 7.8
2017-Apr-27 10:00N 35°39' E 015°20'5 7.7
2017-Apr-27 09:20N 35°44' E 015°20'2 6.4
2017-Apr-27 09:00N 35°46' E 015°19'4 7.9
2017-Apr-27 08:30N 35°47' E 015°15'4 8.0
2017-Apr-27 08:00N 35°49' E 015°10'2 4.2
2017-Apr-27 07:30N 35°50' E 015°12'5 9.1
2017-Apr-27 07:00N 35°55' E 015°14'3 6.2
2017-Apr-27 06:30N 35°58' E 015°14'1 1.5
2017-Apr-27 06:00N 35°58' E 015°15'1 1.2
2017-Apr-27 05:30N 35°59' E 015°15'1 1.2
2017-Apr-27 05:00N 35°59' E 015°16'1 1.2
2017-Apr-27 04:30N 35°60' E 015°17'1 1.2
2017-Apr-27 04:00N 35°60' E 015°17'1 1.2
2017-Apr-27 03:30N 36°00' E 015°18'1 1.2
2017-Apr-27 02:49N 36°01' E 015°19'0 1.2
2017-Apr-27 02:30N 36°01' E 015°19'1 1.1
2017-Apr-27 02:00N 36°02' E 015°19'1 1.0
2017-Apr-27 01:23N 36°02' E 015°20'0 0.9
2017-Apr-27 01:00N 36°02' E 015°20'0 0.8
2017-Apr-27 00:30N 36°02' E 015°21'0 0.7
2017-Apr-27 00:00N 36°02' E 015°21'0 0.7
2017-Apr-26 23:30N 36°02' E 015°22'0 0.6
2017-Apr-26 23:00N 36°02' E 015°22'0 0.6
2017-Apr-26 22:24N 36°02' E 015°22'0 0.5
2017-Apr-26 21:59N 36°02' E 015°23'1 0.5
2017-Apr-26 20:34N 36°02' E 015°23'0 0.5
2017-Apr-26 20:29N 36°02' E 015°23'0 0.6
2017-Apr-26 20:00N 36°01' E 015°24'0 0.6
2017-Apr-26 19:30N 36°01' E 015°24'0 0.6
2017-Apr-26 18:56N 36°01' E 015°24'0 0.7
2017-Apr-26 18:30N 36°01' E 015°25'0 0.8
2017-Apr-26 18:00N 36°01' E 015°25'0 0.9
2017-Apr-26 17:29N 36°00' E 015°25'1 1.0
2017-Apr-26 16:41N 35°60' E 015°26'0 1.1
2017-Apr-26 16:29N 35°60' E 015°26'1 1.1
2017-Apr-26 15:49N 35°59' E 015°27'0 1.1
2017-Apr-26 15:30N 35°59' E 015°28'1 1.2
2017-Apr-26 15:00N 35°59' E 015°28'1 0.5
2017-Apr-26 13:53N 35°59' E 015°29'17 0.6
2017-Apr-25 11:20N 35°51' E 015°10'  
2017-Apr-19 09:32N 35°49' E 014°56'0 0.0
2017-Apr-19 07:17N 35°49' E 014°56'0 0.1
2017-Apr-19 06:59N 35°49' E 014°56'0 0.0
2017-Apr-19 01:23N 35°49' E 014°56'0 0.0
2017-Apr-19 00:59N 35°49' E 014°56'0 0.0
2017-Apr-19 00:29N 35°49' E 014°56'0 0.0
2017-Apr-18 23:53N 35°49' E 014°56'0 0.1
2017-Apr-18 23:29N 35°49' E 014°56'0 0.0
2017-Apr-18 22:47N 35°49' E 014°56'0 0.0
2017-Apr-18 22:14N 35°49' E 014°56'0 0.0
2017-Apr-18 21:59N 35°49' E 014°56'0 0.1
2017-Apr-18 21:29N 35°49' E 014°56'0 0.0
2017-Apr-18 20:59N 35°49' E 014°56'0 0.0
2017-Apr-18 20:29N 35°49' E 014°56'0 0.1
2017-Apr-18 19:59N 35°49' E 014°56'0 0.0
2017-Apr-18 19:29N 35°49' E 014°56'0 0.0
2017-Apr-18 18:35N 35°49' E 014°56'  
Track history (hours):
 
Tides and Currents Weather Stations Pressure Air Temp Water Temp Dewpoint Dewpoint Depression Visibility Wind Speed Wind Dir Waves Ship Positions

Gaz Unity

Last reported at 2017-Apr-28 00:30 UTC. Time now 2017-Apr-28 00:31 UTC.
Position N 35°34' E 015°15'.

; draft 8.7 m.

Type: Ship (hazmat cat C). MMSI: 353956000.

Date/timePositionNaut miles runAvg speedWind from/ knotsBaromVisibWave heightAir tempDewpointWater temp
2017-Apr-28 00:30N 35°34' E 015°15'0 0.6
2017-Apr-28 00:00N 35°34' E 015°15'0 0.6
2017-Apr-27 23:30N 35°34' E 015°15'0 0.6
2017-Apr-27 23:00N 35°33' E 015°16'0 0.7
2017-Apr-27 22:30N 35°33' E 015°16'0 0.7
2017-Apr-27 22:00N 35°33' E 015°16'0 0.7
2017-Apr-27 21:30N 35°33' E 015°17'0 0.6
2017-Apr-27 20:59N 35°33' E 015°17'0 0.7
2017-Apr-27 20:29N 35°32' E 015°17'0 0.7
2017-Apr-27 20:00N 35°32' E 015°18'0 0.6
2017-Apr-27 19:30N 35°32' E 015°18'0 0.6
2017-Apr-27 19:00N 35°32' E 015°18'0 0.6
2017-Apr-27 18:30N 35°32' E 015°19'0 0.6
2017-Apr-27 18:00N 35°32' E 015°19'0 0.6
2017-Apr-27 17:30N 35°32' E 015°19'0 0.5
2017-Apr-27 17:00N 35°32' E 015°20'0 0.4
2017-Apr-27 16:30N 35°31' E 015°20'0 0.4
2017-Apr-27 16:00N 35°31' E 015°20'0 0.3
2017-Apr-27 15:30N 35°31' E 015°20'0 0.3
2017-Apr-27 15:00N 35°31' E 015°20'0 0.2
2017-Apr-27 14:00N 35°31' E 015°20'0 0.1
2017-Apr-27 13:30N 35°31' E 015°20'0 0.2
2017-Apr-27 13:00N 35°31' E 015°20'0 0.1
2017-Apr-27 11:58N 35°31' E 015°20'0 0.2
2017-Apr-27 11:28N 35°31' E 015°20'1 1.3
2017-Apr-27 10:59N 35°32' E 015°20'5 6.9
2017-Apr-27 10:18N 35°36' E 015°20'2 7.8
2017-Apr-27 10:00N 35°39' E 015°20'5 7.7
2017-Apr-27 09:20N 35°44' E 015°20'2 6.4
2017-Apr-27 09:00N 35°46' E 015°19'4 7.9
2017-Apr-27 08:30N 35°47' E 015°15'4 8.0
2017-Apr-27 08:00N 35°49' E 015°10'2 4.2
2017-Apr-27 07:30N 35°50' E 015°12'5 9.1
2017-Apr-27 07:00N 35°55' E 015°14'3 6.2
2017-Apr-27 06:30N 35°58' E 015°14'1 1.5
2017-Apr-27 06:00N 35°58' E 015°15'1 1.2
2017-Apr-27 05:30N 35°59' E 015°15'1 1.2
2017-Apr-27 05:00N 35°59' E 015°16'1 1.2
2017-Apr-27 04:30N 35°60' E 015°17'1 1.2
2017-Apr-27 04:00N 35°60' E 015°17'1 1.2
2017-Apr-27 03:30N 36°00' E 015°18'1 1.2
2017-Apr-27 02:49N 36°01' E 015°19'0 1.2
2017-Apr-27 02:30N 36°01' E 015°19'1 1.1
2017-Apr-27 02:00N 36°02' E 015°19'1 1.0
2017-Apr-27 01:23N 36°02' E 015°20'0 0.9
2017-Apr-27 01:00N 36°02' E 015°20'0 0.8
2017-Apr-27 00:30N 36°02' E 015°21'0 0.7
2017-Apr-27 00:00N 36°02' E 015°21'0 0.7
2017-Apr-26 23:30N 36°02' E 015°22'0 0.6
2017-Apr-26 23:00N 36°02' E 015°22'0 0.6
2017-Apr-26 22:24N 36°02' E 015°22'0 0.5
2017-Apr-26 21:59N 36°02' E 015°23'1 0.5
2017-Apr-26 20:34N 36°02' E 015°23'0 0.5
2017-Apr-26 20:29N 36°02' E 015°23'0 0.6
2017-Apr-26 20:00N 36°01' E 015°24'0 0.6
2017-Apr-26 19:30N 36°01' E 015°24'0 0.6
2017-Apr-26 18:56N 36°01' E 015°24'0 0.7
2017-Apr-26 18:30N 36°01' E 015°25'0 0.8
2017-Apr-26 18:00N 36°01' E 015°25'0 0.9
2017-Apr-26 17:29N 36°00' E 015°25'1 1.0
2017-Apr-26 16:41N 35°60' E 015°26'0 1.1
2017-Apr-26 16:29N 35°60' E 015°26'1 1.1
2017-Apr-26 15:49N 35°59' E 015°27'0 1.1
2017-Apr-26 15:30N 35°59' E 015°28'1 1.2
2017-Apr-26 15:00N 35°59' E 015°28'1 0.5
2017-Apr-26 13:53N 35°59' E 015°29'17 0.6
2017-Apr-25 11:20N 35°51' E 015°10'  
2017-Apr-19 09:32N 35°49' E 014°56'0 0.0
2017-Apr-19 07:17N 35°49' E 014°56'0 0.1
2017-Apr-19 06:59N 35°49' E 014°56'0 0.0
2017-Apr-19 01:23N 35°49' E 014°56'0 0.0
2017-Apr-19 00:59N 35°49' E 014°56'0 0.0
2017-Apr-19 00:29N 35°49' E 014°56'0 0.0
2017-Apr-18 23:53N 35°49' E 014°56'0 0.1
2017-Apr-18 23:29N 35°49' E 014°56'0 0.0
2017-Apr-18 22:47N 35°49' E 014°56'0 0.0
2017-Apr-18 22:14N 35°49' E 014°56'0 0.0
2017-Apr-18 21:59N 35°49' E 014°56'0 0.1
2017-Apr-18 21:29N 35°49' E 014°56'0 0.0
2017-Apr-18 20:59N 35°49' E 014°56'0 0.0
2017-Apr-18 20:29N 35°49' E 014°56'0 0.1
2017-Apr-18 19:59N 35°49' E 014°56'0 0.0
2017-Apr-18 19:29N 35°49' E 014°56'0 0.0
2017-Apr-18 18:35N 35°49' E 014°56'  

Dump ship's entire track history